Time;durP1;ratioP1;P1;durP2;ratioP2;P2;SDS_P1;SDS_P2;PMS_P1;PMS_P2;Temp;Humidity;BMP_temperature;BMP_pressure;BME280_temperature;BME280_humidity;BME280_pressure;Samples;Min_cycle;Max_cycle;Signal;HPM_P1;HPM_P2
2021/04/20 00:02:27;;;;;;;;;;;7.10;99.90;;;;;;5087088;28;19976;-71
2021/04/20 00:04:52;;;;;;;;;;;7.00;99.90;;;;;;5125099;27;19932;-71
2021/04/20 00:07:18;;;;;;;;;;;7.00;99.90;;;;;;5089563;28;19916;-71
2021/04/20 00:09:46;;;;;;;;;;;7.00;99.90;;;;;;5087347;28;19980;-71
2021/04/20 00:12:13;;;;;;;;;;;6.90;99.90;;;;;;5086983;28;19912;-71
2021/04/20 00:14:39;;;;;;;;;;;7.00;99.90;;;;;;5096051;28;19912;-71
2021/04/20 00:17:05;;;;;;;;;;;6.90;99.90;;;;;;5092817;28;19919;-71
2021/04/20 00:19:36;;;;;;;;;;;6.90;99.90;;;;;;5086654;28;19916;-71
2021/04/20 00:22:04;;;;;;;;;;;6.90;99.90;;;;;;5079172;28;19920;-71
2021/04/20 00:24:31;;;;;;;;;;;6.90;99.90;;;;;;5090813;28;19985;-71
2021/04/20 00:26:57;;;;;;;;;;;6.80;99.90;;;;;;5091099;28;20462;-71
2021/04/20 00:29:22;;;;;;;;;;;6.80;99.90;;;;;;5090317;28;19926;-70
2021/04/20 00:31:48;;;;;;;;;;;6.80;99.90;;;;;;5085597;28;20325;-70
2021/04/20 00:34:16;;;;;;;;;;;6.70;99.90;;;;;;5094684;28;20005;-70
2021/04/20 00:36:41;;;;;;;;;;;6.70;99.90;;;;;;5091111;28;19920;-70
2021/04/20 00:39:09;;;;;;;;;;;6.70;99.90;;;;;;5090180;28;19922;-70
2021/04/20 00:41:35;;;;;;;;;;;6.70;99.90;;;;;;5090932;28;19932;-70
2021/04/20 00:44:01;;;;;;;;;;;6.70;99.90;;;;;;5086076;28;19924;-70
2021/04/20 00:46:29;;;;;;;;;;;6.70;99.90;;;;;;5088815;28;20243;-70
2021/04/20 00:48:54;;;;;;;;;;;6.60;99.90;;;;;;5090123;28;19911;-70
2021/04/20 00:51:22;;;;;;;;;;;6.70;99.90;;;;;;5090245;28;20035;-70
2021/04/20 00:53:50;;;;;;;;;;;6.70;99.90;;;;;;5092115;28;19916;-70
2021/04/20 00:56:19;;;;;;;;;;;6.60;99.90;;;;;;5082577;28;19920;-70
2021/04/20 00:58:47;;;;;;;;;;;6.60;99.90;;;;;;5090484;28;20750;-70
2021/04/20 01:01:13;;;;;;;;;;;6.60;99.90;;;;;;5086235;28;19927;-70
2021/04/20 01:03:38;;;;;;;;;;;6.60;99.90;;;;;;5090888;28;19920;-70
2021/04/20 01:06:04;;;;;;;;;;;6.60;99.90;;;;;;5086951;28;20635;-70
2021/04/20 01:08:31;;;;;;;;;;;6.60;99.90;;;;;;5103876;28;19924;-70
2021/04/20 01:10:57;;;;;;;;;;;6.60;99.90;;;;;;5087225;28;19927;-70
2021/04/20 01:13:23;;;;;;;;;;;6.60;99.90;;;;;;5088478;28;19912;-70
2021/04/20 01:15:50;;;;;;;;;;;6.60;99.90;;;;;;5082820;28;20444;-70
2021/04/20 01:18:23;;;;;;;;;;;6.60;99.90;;;;;;5093400;28;19944;-70
2021/04/20 01:20:53;;;;;;;;;;;6.60;99.90;;;;;;5086676;28;19923;-70
2021/04/20 01:23:20;;;;;;;;;;;6.50;99.90;;;;;;5086673;28;20001;-70
2021/04/20 01:25:45;;;;;;;;;;;6.50;99.90;;;;;;5084750;28;19924;-70
2021/04/20 01:28:13;;;;;;;;;;;6.50;99.90;;;;;;5090736;28;20300;-70
2021/04/20 01:30:38;;;;;;;;;;;6.50;99.90;;;;;;5078286;28;19924;-70
2021/04/20 01:33:04;;;;;;;;;;;6.50;99.90;;;;;;5085646;28;19922;-70
2021/04/20 01:35:32;;;;;;;;;;;6.50;99.90;;;;;;5090612;28;19927;-70
2021/04/20 01:38:00;;;;;;;;;;;6.50;99.90;;;;;;5087505;28;19924;-70
2021/04/20 01:40:26;;;;;;;;;;;6.40;99.90;;;;;;5086767;28;20337;-70
2021/04/20 01:42:51;;;;;;;;;;;6.40;99.90;;;;;;5072593;28;19920;-70
2021/04/20 01:45:17;;;;;;;;;;;6.50;99.90;;;;;;5122640;27;19917;-70
2021/04/20 01:47:43;;;;;;;;;;;6.40;99.90;;;;;;5086465;28;20345;-70
2021/04/20 01:50:11;;;;;;;;;;;6.40;99.90;;;;;;5078495;28;19926;-70
2021/04/20 01:52:36;;;;;;;;;;;6.40;99.90;;;;;;5088710;28;19951;-70
2021/04/20 01:55:02;;;;;;;;;;;6.40;99.90;;;;;;5088450;28;19979;-70
2021/04/20 01:57:27;;;;;;;;;;;6.40;99.90;;;;;;5089024;28;19959;-70
2021/04/20 01:59:53;;;;;;;;;;;6.40;99.90;;;;;;5092474;28;19912;-70
2021/04/20 02:02:19;;;;;;;;;;;6.40;99.90;;;;;;5088937;28;19912;-70
2021/04/20 02:04:44;;;;;;;;;;;6.40;99.90;;;;;;5092200;28;19919;-70
2021/04/20 02:07:10;;;;;;;;;;;6.40;99.90;;;;;;5111192;27;19931;-70
2021/04/20 02:09:37;;;;;;;;;;;6.30;99.90;;;;;;5077590;28;20377;-70
2021/04/20 02:12:03;;;;;;;;;;;6.30;99.90;;;;;;5097197;28;19917;-70
2021/04/20 02:14:29;;;;;;;;;;;6.30;99.90;;;;;;5092925;28;19977;-70
2021/04/20 02:16:54;;;;;;;;;;;6.30;99.90;;;;;;5095106;28;19916;-70
2021/04/20 02:19:20;;;;;;;;;;;6.30;99.90;;;;;;5092342;28;19922;-70
2021/04/20 02:21:45;;;;;;;;;;;6.20;99.90;;;;;;5074530;28;19920;-70
2021/04/20 02:24:16;;;;;;;;;;;6.20;99.90;;;;;;5087744;28;19931;-67
2021/04/20 02:26:42;;;;;;;;;;;6.20;99.90;;;;;;5089746;28;20487;-67
2021/04/20 02:29:08;;;;;;;;;;;6.20;99.90;;;;;;5083811;28;19924;-67
2021/04/20 02:31:34;;;;;;;;;;;6.10;99.90;;;;;;5076456;28;19932;-67
2021/04/20 02:34:00;;;;;;;;;;;6.10;99.90;;;;;;5087604;28;19952;-66
2021/04/20 02:36:27;;;;;;;;;;;6.10;99.90;;;;;;5086065;28;19970;-67
2021/04/20 02:38:53;;;;;;;;;;;6.10;99.90;;;;;;5086204;28;20023;-67
2021/04/20 02:41:21;;;;;;;;;;;6.10;99.90;;;;;;5083890;28;20015;-67
2021/04/20 02:43:46;;;;;;;;;;;6.10;99.90;;;;;;5088346;28;19967;-67
2021/04/20 02:46:12;;;;;;;;;;;6.10;99.90;;;;;;5077089;28;20019;-67
2021/04/20 02:48:40;;;;;;;;;;;6.00;99.90;;;;;;5078238;28;20007;-66
2021/04/20 02:51:08;;;;;;;;;;;6.00;99.90;;;;;;5075524;28;19931;-67
2021/04/20 02:53:34;;;;;;;;;;;6.00;99.90;;;;;;5076230;28;19916;-67
2021/04/20 02:55:59;;;;;;;;;;;6.00;99.90;;;;;;5075923;28;19917;-67
2021/04/20 02:58:26;;;;;;;;;;;5.90;99.90;;;;;;5077082;28;19945;-67
2021/04/20 03:00:54;;;;;;;;;;;5.90;99.90;;;;;;5075945;27;19916;-66
2021/04/20 03:03:19;;;;;;;;;;;5.90;99.90;;;;;;5089395;27;21277;-68
2021/04/20 03:05:45;;;;;;;;;;;5.90;99.90;;;;;;5077694;28;20451;-68
2021/04/20 03:08:10;;;;;;;;;;;5.90;99.90;;;;;;5087239;28;19930;-67
2021/04/20 03:10:39;;;;;;;;;;;5.90;99.90;;;;;;5086879;28;19920;-67
2021/04/20 03:13:05;;;;;;;;;;;5.90;99.90;;;;;;5087546;28;20011;-67
2021/04/20 03:15:30;;;;;;;;;;;5.90;99.90;;;;;;5076762;28;20012;-67
2021/04/20 03:17:56;;;;;;;;;;;5.80;99.90;;;;;;5087670;28;20458;-67
2021/04/20 03:20:26;;;;;;;;;;;5.80;99.90;;;;;;5080134;28;20007;-67
2021/04/20 03:22:52;;;;;;;;;;;5.80;99.90;;;;;;5094952;28;19985;-67
2021/04/20 03:25:21;;;;;;;;;;;5.80;99.90;;;;;;5087947;28;19920;-67
2021/04/20 03:27:47;;;;;;;;;;;5.80;99.90;;;;;;5076124;28;19920;-67
2021/04/20 03:30:13;;;;;;;;;;;5.70;99.90;;;;;;5077155;28;19924;-67
2021/04/20 03:33:05;;;;;;;;;;;5.70;99.90;;;;;;5075896;28;19931;-67
2021/04/20 03:35:34;;;;;;;;;;;5.70;99.90;;;;;;5085767;28;19912;-67
2021/04/20 03:38:15;;;;;;;;;;;5.70;99.90;;;;;;5085366;28;19923;-67
2021/04/20 03:40:44;;;;;;;;;;;5.70;99.90;;;;;;5078738;28;19916;-67
2021/04/20 03:43:12;;;;;;;;;;;5.70;99.90;;;;;;5076099;28;19932;-67
2021/04/20 03:45:41;;;;;;;;;;;5.60;99.90;;;;;;5075081;28;20065;-69
2021/04/20 03:48:13;;;;;;;;;;;5.60;99.90;;;;;;5060982;28;19920;-69
2021/04/20 03:50:42;;;;;;;;;;;5.60;99.90;;;;;;5088615;28;19920;-69
2021/04/20 03:53:12;;;;;;;;;;;5.60;99.90;;;;;;5086934;28;20003;-69
2021/04/20 03:55:38;;;;;;;;;;;5.60;99.90;;;;;;5074752;28;19920;-69
2021/04/20 03:58:06;;;;;;;;;;;5.50;99.90;;;;;;5076278;28;19931;-69
2021/04/20 04:00:32;;;;;;;;;;;5.50;99.90;;;;;;5080040;28;19994;-69
2021/04/20 04:03:00;;;;;;;;;;;5.50;99.90;;;;;;5077009;28;20345;-69
2021/04/20 04:05:28;;;;;;;;;;;5.50;99.90;;;;;;5094376;27;20399;-69
2021/04/20 04:07:54;;;;;;;;;;;5.50;99.90;;;;;;5085522;28;20416;-69
2021/04/20 04:10:22;;;;;;;;;;;5.40;99.90;;;;;;5086156;28;20028;-69
2021/04/20 04:12:49;;;;;;;;;;;5.40;99.90;;;;;;5085575;28;19920;-69
2021/04/20 04:15:17;;;;;;;;;;;5.40;99.90;;;;;;5065377;28;20304;-69
2021/04/20 04:17:43;;;;;;;;;;;5.40;99.90;;;;;;5091041;27;19930;-68
2021/04/20 04:20:11;;;;;;;;;;;5.40;99.90;;;;;;5078835;28;19930;-69
2021/04/20 04:22:39;;;;;;;;;;;5.40;99.90;;;;;;5076020;28;19919;-69
2021/04/20 04:25:05;;;;;;;;;;;5.30;99.90;;;;;;5074651;28;19920;-69
2021/04/20 04:27:33;;;;;;;;;;;5.30;99.90;;;;;;5107539;27;20088;-69
2021/04/20 04:30:01;;;;;;;;;;;5.30;99.90;;;;;;5090734;27;21450;-69
2021/04/20 04:32:29;;;;;;;;;;;5.30;99.90;;;;;;5076669;28;19920;-68
2021/04/20 04:34:54;;;;;;;;;;;5.30;99.90;;;;;;5090954;27;20626;-69
2021/04/20 04:37:22;;;;;;;;;;;5.30;99.90;;;;;;5075678;28;19927;-69
2021/04/20 04:39:53;;;;;;;;;;;5.30;99.90;;;;;;5071648;28;19916;-68
2021/04/20 04:42:23;;;;;;;;;;;5.20;99.90;;;;;;5074436;28;19917;-69
2021/04/20 04:44:51;;;;;;;;;;;5.30;99.90;;;;;;5060208;28;19964;-69
2021/04/20 04:47:19;;;;;;;;;;;5.20;99.90;;;;;;5077305;28;19932;-69
2021/04/20 04:49:47;;;;;;;;;;;5.20;99.90;;;;;;5081525;28;20679;-69
2021/04/20 04:52:13;;;;;;;;;;;5.20;99.90;;;;;;5086149;28;20502;-69
2021/04/20 04:54:41;;;;;;;;;;;5.20;99.90;;;;;;5089198;28;20000;-69
2021/04/20 04:57:08;;;;;;;;;;;5.20;99.90;;;;;;5075267;28;19917;-69
2021/04/20 04:59:34;;;;;;;;;;;5.20;99.90;;;;;;5073524;28;21753;-69
2021/04/20 05:02:02;;;;;;;;;;;5.20;99.90;;;;;;5059215;28;19927;-68
2021/04/20 05:04:28;;;;;;;;;;;5.20;99.90;;;;;;5070502;28;20426;-69
2021/04/20 05:06:53;;;;;;;;;;;5.20;99.90;;;;;;5086862;28;19920;-69
2021/04/20 05:09:22;;;;;;;;;;;5.30;99.90;;;;;;5090144;28;19972;-69
2021/04/20 05:11:50;;;;;;;;;;;5.30;99.90;;;;;;5074860;28;19920;-69
2021/04/20 05:14:16;;;;;;;;;;;5.30;99.90;;;;;;5075099;28;19923;-68
2021/04/20 05:16:47;;;;;;;;;;;5.30;99.90;;;;;;5073949;28;19928;-69
2021/04/20 05:19:13;;;;;;;;;;;5.30;99.90;;;;;;5081365;28;19959;-69
2021/04/20 05:21:41;;;;;;;;;;;5.40;99.90;;;;;;5078708;28;20012;-69
2021/04/20 05:24:06;;;;;;;;;;;5.40;99.90;;;;;;5080477;28;19974;-69
2021/04/20 05:26:32;;;;;;;;;;;5.40;99.90;;;;;;5077614;28;20440;-69
2021/04/20 05:29:01;;;;;;;;;;;5.40;99.90;;;;;;5081838;28;19916;-69
2021/04/20 05:31:26;;;;;;;;;;;5.50;99.90;;;;;;5085122;28;19940;-69
2021/04/20 05:33:58;;;;;;;;;;;5.50;99.90;;;;;;5088743;28;19920;-69
2021/04/20 05:36:26;;;;;;;;;;;5.50;99.90;;;;;;5077492;28;19943;-69
2021/04/20 05:38:55;;;;;;;;;;;5.50;99.90;;;;;;5078846;28;20097;-69
2021/04/20 05:41:21;;;;;;;;;;;5.60;99.90;;;;;;5078060;28;19931;-69
2021/04/20 05:43:49;;;;;;;;;;;5.70;99.90;;;;;;5089616;28;19953;-69
2021/04/20 05:46:14;;;;;;;;;;;5.70;99.90;;;;;;5111601;27;19981;-69
2021/04/20 05:48:40;;;;;;;;;;;5.70;99.90;;;;;;5079422;28;20300;-69
2021/04/20 05:51:08;;;;;;;;;;;5.80;99.90;;;;;;5106575;27;20496;-69
2021/04/20 05:53:34;;;;;;;;;;;5.80;99.90;;;;;;5098325;27;19916;-69
2021/04/20 05:56:05;;;;;;;;;;;5.90;99.90;;;;;;5073242;28;19920;-69
2021/04/20 05:58:30;;;;;;;;;;;6.00;99.90;;;;;;5077565;28;19995;-70
2021/04/20 06:00:58;;;;;;;;;;;6.00;99.90;;;;;;5094219;27;19920;-69
2021/04/20 06:03:23;;;;;;;;;;;6.10;99.90;;;;;;5077001;28;20552;-68
2021/04/20 06:05:49;;;;;;;;;;;6.20;99.90;;;;;;5095194;27;20365;-69
2021/04/20 06:08:14;;;;;;;;;;;6.20;99.90;;;;;;5097001;28;19924;-68
2021/04/20 06:10:42;;;;;;;;;;;6.30;99.90;;;;;;5083343;28;19974;-69
2021/04/20 06:13:10;;;;;;;;;;;6.40;99.90;;;;;;5094343;27;19922;-69
2021/04/20 06:15:38;;;;;;;;;;;6.50;99.90;;;;;;5064978;28;19919;-68
2021/04/20 06:18:04;;;;;;;;;;;6.50;99.90;;;;;;5080658;28;19924;-68
2021/04/20 06:20:32;;;;;;;;;;;6.60;99.90;;;;;;5074457;28;21709;-69
2021/04/20 06:22:58;;;;;;;;;;;6.70;99.90;;;;;;5073672;28;19931;-68
2021/04/20 06:25:28;;;;;;;;;;;6.80;99.90;;;;;;5081089;28;19942;-69
2021/04/20 06:27:54;;;;;;;;;;;6.90;99.90;;;;;;5077772;28;19958;-69
2021/04/20 06:30:20;;;;;;;;;;;7.00;99.90;;;;;;5080102;28;20011;-69
2021/04/20 06:32:45;;;;;;;;;;;7.10;99.90;;;;;;5096784;28;19919;-69
2021/04/20 06:35:15;;;;;;;;;;;7.10;99.90;;;;;;5092111;28;19919;-69
2021/04/20 06:37:41;;;;;;;;;;;7.20;99.90;;;;;;5074935;28;19920;-69
2021/04/20 06:40:10;;;;;;;;;;;7.30;99.90;;;;;;5077152;28;19924;-68
2021/04/20 06:42:56;;;;;;;;;;;7.40;99.90;;;;;;5094179;27;20391;-69
2021/04/20 06:45:32;;;;;;;;;;;7.40;99.90;;;;;;5077056;28;19993;-69
2021/04/20 06:47:59;;;;;;;;;;;7.60;99.90;;;;;;5079905;28;19920;-69
2021/04/20 06:50:24;;;;;;;;;;;7.60;99.90;;;;;;5079467;28;20557;-69
2021/04/20 06:52:55;;;;;;;;;;;7.70;99.90;;;;;;5081104;28;19927;-69
2021/04/20 06:55:36;;;;;;;;;;;7.80;99.90;;;;;;5076107;28;20021;-68
2021/04/20 06:58:23;;;;;;;;;;;7.90;99.90;;;;;;5092585;27;19967;-69
2021/04/20 07:00:50;;;;;;;;;;;8.00;99.90;;;;;;5076818;28;19928;-68
2021/04/20 07:03:26;;;;;;;;;;;8.10;99.90;;;;;;5075112;28;19951;-68
2021/04/20 07:06:24;;;;;;;;;;;8.20;99.90;;;;;;5091648;27;19923;-68
2021/04/20 07:09:22;;;;;;;;;;;8.30;99.90;;;;;;5050521;28;20463;-68
2021/04/20 07:11:48;;;;;;;;;;;8.50;99.90;;;;;;5078826;28;19916;-69
2021/04/20 07:14:21;;;;;;;;;;;8.60;99.90;;;;;;5087107;28;20408;-68
2021/04/20 07:17:05;;;;;;;;;;;8.60;99.90;;;;;;5095195;28;19924;-69
2021/04/20 07:19:49;;;;;;;;;;;8.70;99.90;;;;;;5077014;28;19916;-68
2021/04/20 07:22:14;;;;;;;;;;;8.70;99.90;;;;;;5077116;28;19928;-68
2021/04/20 07:24:45;;;;;;;;;;;8.80;99.90;;;;;;5092000;27;19919;-69
2021/04/20 07:27:23;;;;;;;;;;;8.80;99.90;;;;;;5077570;28;19924;-69
2021/04/20 07:30:07;;;;;;;;;;;8.90;99.90;;;;;;5075252;28;20057;-69
2021/04/20 07:32:41;;;;;;;;;;;8.90;99.90;;;;;;5075266;28;19982;-67
2021/04/20 07:35:10;;;;;;;;;;;8.90;99.90;;;;;;5077057;28;19968;-67
2021/04/20 07:37:35;;;;;;;;;;;9.00;99.90;;;;;;5077250;28;19980;-67
2021/04/20 07:40:20;;;;;;;;;;;9.10;99.90;;;;;;5075877;28;20303;-67
2021/04/20 07:42:55;;;;;;;;;;;9.20;99.90;;;;;;5074822;28;20529;-67
2021/04/20 07:45:25;;;;;;;;;;;9.20;99.90;;;;;;5075964;28;20026;-67
2021/04/20 07:48:10;;;;;;;;;;;9.30;99.90;;;;;;5076067;28;19916;-67
2021/04/20 07:50:40;;;;;;;;;;;9.40;99.90;;;;;;5075555;28;19973;-67
2021/04/20 07:53:15;;;;;;;;;;;9.50;99.90;;;;;;5092519;27;20491;-67
2021/04/20 07:55:41;;;;;;;;;;;9.60;99.90;;;;;;5092487;28;19970;-67
2021/04/20 07:58:09;;;;;;;;;;;9.70;99.90;;;;;;5089991;28;19912;-67
2021/04/20 08:00:35;;;;;;;;;;;9.80;99.90;;;;;;5074552;28;21682;-68
2021/04/20 08:03:05;;;;;;;;;;;10.00;99.90;;;;;;5077216;28;19973;-69
2021/04/20 08:05:31;;;;;;;;;;;10.00;99.90;;;;;;5075922;28;19911;-69
2021/04/20 08:07:58;;;;;;;;;;;10.20;99.90;;;;;;5074575;28;19924;-67
2021/04/20 08:10:42;;;;;;;;;;;10.40;99.90;;;;;;5082680;28;19923;-67
2021/04/20 08:13:14;;;;;;;;;;;10.50;99.90;;;;;;5080251;28;19912;-67
2021/04/20 08:15:45;;;;;;;;;;;10.70;99.90;;;;;;5093658;28;20338;-67
2021/04/20 08:18:34;;;;;;;;;;;10.90;99.90;;;;;;5086879;28;19942;-66
2021/04/20 08:21:01;;;;;;;;;;;11.00;99.90;;;;;;5056273;28;19927;-67
2021/04/20 08:23:27;;;;;;;;;;;11.40;99.90;;;;;;5088431;28;20238;-67
2021/04/20 08:25:54;;;;;;;;;;;11.60;99.90;;;;;;5086770;28;19924;-69
2021/04/20 08:28:24;;;;;;;;;;;11.80;99.90;;;;;;5077498;28;19928;-69
2021/04/20 08:30:57;;;;;;;;;;;11.90;99.90;;;;;;5075252;28;19989;-67
2021/04/20 08:33:25;;;;;;;;;;;12.20;99.90;;;;;;5081276;28;20147;-67
2021/04/20 08:35:55;;;;;;;;;;;12.50;99.90;;;;;;5093731;28;19912;-67
2021/04/20 08:38:23;;;;;;;;;;;12.50;99.60;;;;;;5073350;28;19973;-67
2021/04/20 08:40:50;;;;;;;;;;;12.70;98.70;;;;;;5083139;28;20343;-67
2021/04/20 08:43:35;;;;;;;;;;;12.80;96.10;;;;;;5083610;28;19916;-67
2021/04/20 08:46:20;;;;;;;;;;;12.90;99.20;;;;;;5081842;28;20373;-67
2021/04/20 08:49:05;;;;;;;;;;;13.10;94.00;;;;;;5089935;28;19916;-67
2021/04/20 08:51:39;;;;;;;;;;;13.20;98.80;;;;;;5084816;28;19924;-67
2021/04/20 08:54:40;;;;;;;;;;;13.50;99.90;;;;;;5086896;28;19923;-67
2021/04/20 08:57:14;;;;;;;;;;;13.60;95.00;;;;;;5050188;28;20549;-67
2021/04/20 08:59:52;;;;;;;;;;;13.70;91.60;;;;;;5083527;28;20633;-66
2021/04/20 09:02:37;;;;;;;;;;;13.70;92.10;;;;;;5084753;28;19954;-67
2021/04/20 09:05:08;;;;;;;;;;;13.90;90.90;;;;;;5085159;28;19916;-67
2021/04/20 09:07:53;;;;;;;;;;;14.10;91.20;;;;;;5092455;28;20257;-67
2021/04/20 09:10:19;;;;;;;;;;;14.20;91.00;;;;;;5092888;28;20576;-68
2021/04/20 09:12:45;;;;;;;;;;;14.40;88.60;;;;;;5095400;28;20027;-67
2021/04/20 09:15:12;;;;;;;;;;;14.50;85.90;;;;;;5092359;28;20007;-67
2021/04/20 09:17:39;;;;;;;;;;;14.50;84.80;;;;;;5091406;28;19951;-67
2021/04/20 09:20:11;;;;;;;;;;;14.60;81.40;;;;;;5108458;27;19912;-67
2021/04/20 09:22:40;;;;;;;;;;;14.70;87.70;;;;;;5064695;28;19916;-67
2021/04/20 09:25:24;;;;;;;;;;;14.80;84.80;;;;;;5090529;28;20803;-67
2021/04/20 09:27:59;;;;;;;;;;;14.80;86.80;;;;;;5092558;28;20006;-68
2021/04/20 09:30:27;;;;;;;;;;;15.00;91.70;;;;;;5100113;28;20648;-68
2021/04/20 09:33:00;;;;;;;;;;;15.20;86.60;;;;;;5093668;28;20021;-68
2021/04/20 09:35:26;;;;;;;;;;;15.20;79.30;;;;;;5090003;28;19927;-70
2021/04/20 09:37:54;;;;;;;;;;;15.10;78.90;;;;;;5091701;28;19920;-68
2021/04/20 09:40:20;;;;;;;;;;;15.20;82.70;;;;;;5092680;28;19981;-68
2021/04/20 09:42:50;;;;;;;;;;;15.30;81.60;;;;;;5092115;28;19919;-67
2021/04/20 09:45:22;;;;;;;;;;;15.20;73.60;;;;;;5091893;28;19924;-68
2021/04/20 09:48:16;;;;;;;;;;;15.50;80.40;;;;;;5093075;28;19916;-67
2021/04/20 09:51:17;;;;;;;;;;;15.60;78.80;;;;;;5079261;28;19924;-68
2021/04/20 09:53:49;;;;;;;;;;;15.80;84.30;;;;;;5054257;28;19983;-68
2021/04/20 09:56:34;;;;;;;;;;;15.80;74.30;;;;;;5086117;27;19912;-68
2021/04/20 09:59:02;;;;;;;;;;;15.80;73.20;;;;;;5093412;28;20407;-68
2021/04/20 10:01:51;;;;;;;;;;;15.60;75.50;;;;;;5093544;28;20824;-68
2021/04/20 10:04:35;;;;;;;;;;;15.80;82.40;;;;;;5086902;28;19920;-68
2021/04/20 10:07:19;;;;;;;;;;;15.70;71.70;;;;;;5093505;28;19917;-68
2021/04/20 10:09:45;;;;;;;;;;;15.70;79.80;;;;;;5090500;28;19912;-68
2021/04/20 10:12:10;;;;;;;;;;;15.90;78.20;;;;;;5089502;28;20293;-68
2021/04/20 10:14:45;;;;;;;;;;;16.00;81.20;;;;;;5106131;27;19951;-69
2021/04/20 10:17:16;;;;;;;;;;;15.90;74.80;;;;;;5094196;28;20015;-69
2021/04/20 10:19:41;;;;;;;;;;;16.30;81.70;;;;;;5105781;27;19920;-68
2021/04/20 10:22:09;;;;;;;;;;;16.40;74.90;;;;;;5092028;28;19924;-68
2021/04/20 10:24:37;;;;;;;;;;;16.60;75.50;;;;;;5090782;28;20030;-68
2021/04/20 10:27:06;;;;;;;;;;;16.80;71.30;;;;;;5084989;28;20018;-71
2021/04/20 10:29:38;;;;;;;;;;;16.70;66.00;;;;;;5088618;28;20019;-71
2021/04/20 10:32:16;;;;;;;;;;;16.60;72.20;;;;;;5091586;28;19976;-70
2021/04/20 10:34:46;;;;;;;;;;;16.90;69.10;;;;;;5088376;28;19920;-71
2021/04/20 10:37:14;;;;;;;;;;;16.60;65.60;;;;;;5093974;28;19927;-71
2021/04/20 10:39:44;;;;;;;;;;;16.50;70.10;;;;;;5101459;27;19976;-70
2021/04/20 10:42:09;;;;;;;;;;;16.30;68.30;;;;;;5079426;28;19976;-71
2021/04/20 10:44:36;;;;;;;;;;;16.40;68.00;;;;;;5090517;28;20341;-71
2021/04/20 10:47:02;;;;;;;;;;;16.60;69.70;;;;;;5075230;28;20522;-71
2021/04/20 10:49:28;;;;;;;;;;;16.50;70.50;;;;;;5088118;28;19920;-71
2021/04/20 10:51:59;;;;;;;;;;;16.60;68.80;;;;;;5090748;28;19980;-71
2021/04/20 10:54:32;;;;;;;;;;;16.60;68.30;;;;;;5092006;28;19923;-71
2021/04/20 10:56:57;;;;;;;;;;;16.60;68.60;;;;;;5093388;28;20345;-71
2021/04/20 10:59:26;;;;;;;;;;;16.80;71.60;;;;;;5071562;28;19970;-71
2021/04/20 11:01:52;;;;;;;;;;;17.00;71.60;;;;;;5091645;28;19912;-71
2021/04/20 11:04:19;;;;;;;;;;;17.00;67.80;;;;;;5095601;28;20445;-71
2021/04/20 11:06:47;;;;;;;;;;;16.80;69.30;;;;;;5092177;28;19920;-71
2021/04/20 11:09:12;;;;;;;;;;;16.80;64.70;;;;;;5089554;28;20022;-71
2021/04/20 11:11:38;;;;;;;;;;;16.80;65.60;;;;;;5090212;28;20026;-71
2021/04/20 11:14:03;;;;;;;;;;;16.60;65.20;;;;;;5088962;28;20397;-71
2021/04/20 11:16:36;;;;;;;;;;;16.90;69.80;;;;;;5088550;28;19928;-70
2021/04/20 11:19:05;;;;;;;;;;;17.00;71.90;;;;;;5093176;28;19916;-71
2021/04/20 11:21:34;;;;;;;;;;;16.90;65.30;;;;;;5090744;28;19919;-71
2021/04/20 11:24:03;;;;;;;;;;;17.00;67.50;;;;;;5090662;28;19924;-71
2021/04/20 11:26:30;;;;;;;;;;;17.10;66.80;;;;;;5095967;28;19916;-71
2021/04/20 11:28:57;;;;;;;;;;;16.80;65.50;;;;;;5089069;28;19934;-72
2021/04/20 11:31:36;;;;;;;;;;;16.70;62.80;;;;;;5087346;28;19924;-72
2021/04/20 11:34:06;;;;;;;;;;;17.10;65.20;;;;;;5060802;28;19955;-71
2021/04/20 11:36:32;;;;;;;;;;;17.30;70.20;;;;;;5087498;28;19924;-71
2021/04/20 11:39:02;;;;;;;;;;;17.50;65.80;;;;;;5087524;28;19916;-71
2021/04/20 11:41:32;;;;;;;;;;;18.10;64.70;;;;;;5089558;28;19919;-71
2021/04/20 11:43:59;;;;;;;;;;;18.50;65.60;;;;;;5088824;28;19954;-71
2021/04/20 11:46:24;;;;;;;;;;;18.90;60.30;;;;;;5078692;28;19920;-71
2021/04/20 11:48:51;;;;;;;;;;;19.20;62.60;;;;;;5089123;28;19969;-70
2021/04/20 11:51:19;;;;;;;;;;;19.60;59.10;;;;;;5089015;28;19916;-68
2021/04/20 11:53:47;;;;;;;;;;;19.70;64.40;;;;;;5089623;28;19924;-71
2021/04/20 11:56:19;;;;;;;;;;;19.40;56.40;;;;;;5088673;28;19915;-71
2021/04/20 11:58:45;;;;;;;;;;;19.90;62.40;;;;;;5089648;28;20012;-68
2021/04/20 12:01:15;;;;;;;;;;;19.90;60.00;;;;;;5093388;28;19916;-69
2021/04/20 12:03:51;;;;;;;;;;;19.20;56.80;;;;;;5091526;28;19915;-69
2021/04/20 12:06:16;;;;;;;;;;;19.50;61.30;;;;;;5091309;28;20310;-71
2021/04/20 12:08:43;;;;;;;;;;;19.50;61.80;;;;;;5088444;28;19919;-71
2021/04/20 12:11:08;;;;;;;;;;;19.80;59.40;;;;;;5086519;28;20284;-70
2021/04/20 12:13:35;;;;;;;;;;;20.30;62.50;;;;;;5086044;28;19920;-71
2021/04/20 12:16:05;;;;;;;;;;;20.90;59.80;;;;;;5119844;27;19916;-71
2021/04/20 12:18:30;;;;;;;;;;;20.90;59.00;;;;;;5086504;28;19920;-71
2021/04/20 12:20:59;;;;;;;;;;;20.90;54.90;;;;;;5088333;28;20414;-71
2021/04/20 12:23:25;;;;;;;;;;;20.60;52.60;;;;;;5089776;28;19912;-71
2021/04/20 12:25:53;;;;;;;;;;;20.30;51.20;;;;;;5120535;27;19916;-71
2021/04/20 12:28:19;;;;;;;;;;;20.40;58.90;;;;;;5103533;27;19960;-70
2021/04/20 12:30:49;;;;;;;;;;;20.40;53.90;;;;;;5087888;28;19962;-70
2021/04/20 12:33:19;;;;;;;;;;;20.00;54.00;;;;;;5089937;28;19912;-70
2021/04/20 12:35:45;;;;;;;;;;;20.70;53.90;;;;;;5088353;28;20010;-71
2021/04/20 12:38:10;;;;;;;;;;;20.50;52.00;;;;;;5087149;28;20420;-71
2021/04/20 12:40:36;;;;;;;;;;;20.70;55.30;;;;;;5087633;28;19920;-71
2021/04/20 12:43:03;;;;;;;;;;;20.40;53.80;;;;;;5076641;28;19923;-71
2021/04/20 12:45:32;;;;;;;;;;;20.30;52.40;;;;;;5092884;28;19926;-71
2021/04/20 12:47:57;;;;;;;;;;;20.10;55.20;;;;;;5084027;28;19955;-71
2021/04/20 12:50:30;;;;;;;;;;;20.00;52.70;;;;;;5088549;28;19963;-71
2021/04/20 12:52:58;;;;;;;;;;;19.60;53.60;;;;;;5104194;28;19917;-71
2021/04/20 12:55:24;;;;;;;;;;;18.70;54.40;;;;;;5078339;28;19920;-71
2021/04/20 12:57:50;;;;;;;;;;;18.30;57.10;;;;;;5077101;28;21875;-71
2021/04/20 13:00:18;;;;;;;;;;;18.20;59.30;;;;;;5085189;28;19995;-71
2021/04/20 13:02:47;;;;;;;;;;;17.80;58.20;;;;;;5102447;28;19955;-71
2021/04/20 13:05:13;;;;;;;;;;;17.50;59.60;;;;;;5072529;28;19911;-71
2021/04/20 13:07:39;;;;;;;;;;;17.40;61.40;;;;;;5087062;28;19926;-71
2021/04/20 13:10:05;;;;;;;;;;;17.40;63.40;;;;;;5084969;28;21765;-71
2021/04/20 13:12:30;;;;;;;;;;;17.10;58.00;;;;;;5072925;28;19978;-71
2021/04/20 13:15:02;;;;;;;;;;;17.00;59.50;;;;;;5087655;28;20372;-72
2021/04/20 13:17:30;;;;;;;;;;;16.90;61.30;;;;;;5088187;28;19919;-71
2021/04/20 13:19:57;;;;;;;;;;;17.00;62.80;;;;;;5090352;28;21728;-71
2021/04/20 13:22:26;;;;;;;;;;;17.00;65.20;;;;;;5092795;28;19920;-71
2021/04/20 13:24:55;;;;;;;;;;;16.80;62.60;;;;;;5086774;28;19916;-70
2021/04/20 13:27:21;;;;;;;;;;;16.70;60.40;;;;;;5089869;28;20025;-72
2021/04/20 13:29:49;;;;;;;;;;;16.70;63.00;;;;;;5088874;28;19917;-72
2021/04/20 13:32:19;;;;;;;;;;;16.70;63.90;;;;;;5088302;28;20422;-72
2021/04/20 13:34:44;;;;;;;;;;;16.70;63.00;;;;;;5074031;28;19917;-72
2021/04/20 13:37:13;;;;;;;;;;;16.60;62.30;;;;;;5085939;28;19912;-72
2021/04/20 13:39:40;;;;;;;;;;;16.40;61.30;;;;;;5091150;28;20506;-72
2021/04/20 13:42:08;;;;;;;;;;;16.40;64.00;;;;;;5090188;28;20001;-72
2021/04/20 13:44:42;;;;;;;;;;;16.30;63.70;;;;;;5074460;28;19912;-72
2021/04/20 13:47:08;;;;;;;;;;;16.20;61.90;;;;;;5088416;28;19927;-72
2021/04/20 13:49:41;;;;;;;;;;;16.30;63.70;;;;;;5091636;28;19991;-72
2021/04/20 13:52:09;;;;;;;;;;;16.50;64.30;;;;;;5094541;28;19989;-72
2021/04/20 13:54:35;;;;;;;;;;;16.90;64.00;;;;;;5071811;28;19922;-72
2021/04/20 13:57:12;;;;;;;;;;;17.10;62.80;;;;;;5074956;28;19916;-71
2021/04/20 13:59:41;;;;;;;;;;;17.50;62.60;;;;;;5092022;28;19916;-71
2021/04/20 14:02:12;;;;;;;;;;;17.70;63.30;;;;;;5092462;28;20238;-71
2021/04/20 14:04:41;;;;;;;;;;;17.70;58.70;;;;;;5096036;28;20408;-71
2021/04/20 14:07:13;;;;;;;;;;;17.80;58.50;;;;;;5080189;28;19916;-71
2021/04/20 14:09:41;;;;;;;;;;;18.10;62.80;;;;;;5103685;27;20876;-72
2021/04/20 14:12:07;;;;;;;;;;;18.30;61.90;;;;;;5095023;28;19959;-71
2021/04/20 14:14:37;;;;;;;;;;;18.40;59.40;;;;;;5112802;27;19938;-71
2021/04/20 14:17:03;;;;;;;;;;;18.30;55.90;;;;;;5092669;28;19916;-71
2021/04/20 14:19:29;;;;;;;;;;;18.30;54.90;;;;;;5087513;28;19969;-71
2021/04/20 14:21:58;;;;;;;;;;;18.00;55.30;;;;;;5074730;28;20046;-71
2021/04/20 14:24:24;;;;;;;;;;;18.00;55.90;;;;;;5095407;28;20420;-72
2021/04/20 14:26:52;;;;;;;;;;;18.10;57.50;;;;;;5096268;28;19976;-72
2021/04/20 14:29:20;;;;;;;;;;;18.10;58.60;;;;;;5093281;28;19951;-71
2021/04/20 14:31:48;;;;;;;;;;;18.10;59.50;;;;;;5093606;28;20361;-72
2021/04/20 14:34:14;;;;;;;;;;;17.90;57.60;;;;;;5094008;28;20325;-72
2021/04/20 14:36:42;;;;;;;;;;;17.80;57.00;;;;;;5094487;28;19959;-72